createdAt,value
2019-04-03T00:03:30.889Z,5.20
2019-04-03T00:08:36.630Z,4.67
2019-04-03T00:13:43.209Z,4.30
2019-04-03T00:18:48.054Z,4.40
2019-04-03T00:23:54.059Z,5.63
2019-04-03T00:28:58.701Z,5.17
2019-04-03T00:34:04.753Z,6.20
2019-04-03T00:39:09.294Z,4.53
2019-04-03T00:44:15.639Z,5.40
2019-04-03T00:49:20.192Z,4.70
2019-04-03T00:54:26.969Z,4.43
2019-04-03T00:59:33.429Z,5.10
2019-04-03T01:04:38.761Z,5.00
2019-04-03T01:09:43.337Z,5.43
2019-04-03T01:14:49.567Z,5.63
2019-04-03T01:19:54.206Z,5.13
2019-04-03T01:24:59.894Z,5.33
2019-04-03T01:30:05.761Z,4.93
2019-04-03T01:35:10.467Z,4.60
2019-04-03T01:40:15.076Z,5.40
2019-04-03T01:45:20.910Z,5.30
2019-04-03T01:50:28.309Z,5.23
2019-04-03T01:55:34.489Z,5.40
2019-04-03T02:00:39.887Z,5.13
2019-04-03T02:05:48.685Z,6.00
2019-04-03T02:10:55.134Z,6.03
2019-04-03T02:16:00.834Z,4.13
2019-04-03T02:21:05.365Z,4.17
2019-04-03T02:26:12.494Z,4.00
2019-04-03T02:31:19.080Z,4.33
2019-04-03T02:36:24.684Z,5.03
2019-04-03T02:41:29.333Z,4.40
2019-04-03T02:46:38.131Z,3.77
2019-04-03T02:51:42.729Z,4.00
2019-04-03T02:56:48.446Z,3.80
2019-04-03T03:01:53.548Z,3.53
2019-04-03T03:06:59.117Z,4.23
2019-04-03T03:12:03.722Z,3.30
2019-04-03T03:17:08.990Z,3.80
2019-04-03T03:22:17.217Z,3.80
2019-04-03T03:27:20.810Z,4.60
2019-04-03T03:32:31.348Z,4.00
2019-04-03T03:37:34.428Z,3.87
2019-04-03T03:42:39.072Z,3.40
2019-04-03T03:47:44.459Z,3.60
2019-04-03T03:52:49.074Z,3.97
2019-04-03T03:57:54.135Z,3.80
2019-04-03T04:02:58.822Z,4.57
2019-04-03T04:08:09.468Z,5.33
2019-04-03T04:13:15.087Z,4.50
2019-04-03T04:18:17.912Z,4.37
2019-04-03T04:23:24.496Z,3.60
2019-04-03T04:28:29.247Z,3.40
2019-04-03T04:33:33.801Z,4.23
2019-04-03T04:38:38.518Z,4.20
2019-04-03T04:43:43.082Z,3.60
2019-04-03T04:48:47.949Z,3.93
2019-04-03T04:53:52.482Z,3.77
2019-04-03T04:58:57.534Z,3.93
2019-04-03T05:04:02.264Z,4.13
2019-04-03T05:09:08.823Z,3.93
2019-04-03T05:14:13.606Z,3.13
2019-04-03T05:19:19.539Z,4.00
2019-04-03T05:24:24.622Z,4.10
2019-04-03T05:29:30.089Z,6.70
2019-04-03T05:34:34.736Z,15.07
2019-04-03T05:39:39.416Z,5.57
2019-04-03T05:44:44.056Z,5.67
2019-04-03T05:49:50.566Z,5.53
2019-04-03T05:54:54.912Z,6.03
2019-04-03T06:00:02.364Z,5.37
2019-04-03T06:05:07.226Z,6.00
2019-04-03T06:10:13.234Z,5.50
2019-04-03T06:15:17.801Z,6.20
2019-04-03T06:20:22.400Z,5.57
2019-04-03T06:25:30.104Z,3.90
2019-04-03T06:30:33.210Z,5.67
2019-04-03T06:35:37.822Z,6.67
2019-04-03T06:40:42.455Z,7.43
2019-04-03T06:45:47.292Z,6.83
2019-04-03T06:50:53.010Z,7.30
2019-04-03T06:55:57.563Z,7.83
2019-04-03T07:01:03.041Z,7.07
2019-04-03T07:06:08.976Z,7.07
2019-04-03T07:11:23.276Z,8.00
2019-04-03T07:16:20.049Z,6.80
2019-04-03T07:21:27.260Z,6.13
2019-04-03T07:26:31.285Z,7.53
2019-04-03T07:31:35.962Z,7.63
2019-04-03T07:36:41.308Z,7.40
2019-04-03T07:41:47.809Z,7.93
2019-04-03T07:46:54.733Z,10.13
2019-04-03T07:51:58.699Z,20.20
2019-04-03T07:57:03.284Z,11.70
2019-04-03T08:02:08.076Z,9.80
2019-04-03T08:07:12.752Z,10.50
2019-04-03T08:12:18.445Z,11.10
2019-04-03T08:17:23.518Z,10.27
2019-04-03T08:22:28.784Z,9.37
2019-04-03T08:27:33.645Z,8.50
2019-04-03T08:32:39.219Z,8.60
2019-04-03T08:37:43.856Z,9.43
2019-04-03T08:42:49.699Z,8.77
2019-04-03T08:47:54.574Z,8.63
2019-04-03T08:52:59.850Z,8.30
2019-04-03T08:58:04.573Z,9.00
2019-04-03T09:03:09.704Z,8.53
2019-04-03T09:08:14.280Z,8.40
2019-04-03T09:13:22.918Z,8.83
2019-04-03T09:18:26.081Z,8.37
2019-04-03T09:23:30.685Z,7.67
2019-04-03T09:28:35.232Z,7.30
2019-04-03T09:33:39.793Z,7.87
2019-04-03T09:38:44.397Z,7.57
2019-04-03T09:43:49.242Z,7.37
2019-04-03T09:48:53.885Z,7.03
2019-04-03T09:53:59.015Z,6.80
2019-04-03T09:59:05.970Z,6.53
2019-04-03T10:04:10.041Z,6.33
2019-04-03T10:09:14.818Z,6.37
2019-04-03T10:14:19.664Z,4.90
2019-04-03T10:19:24.456Z,5.57
2019-04-03T10:24:31.050Z,5.80
2019-04-03T10:29:35.502Z,5.93
2019-04-03T10:34:42.893Z,6.27
2019-04-03T10:39:47.431Z,6.03
2019-04-03T10:44:52.194Z,5.47
2019-04-03T10:49:56.897Z,5.50
2019-04-03T10:55:01.526Z,7.33
2019-04-03T11:00:09.146Z,6.93
2019-04-03T11:05:13.982Z,7.13
2019-04-03T11:10:18.968Z,6.87
2019-04-03T11:15:23.712Z,6.67
2019-04-03T11:20:28.467Z,6.57
2019-04-03T11:25:34.969Z,7.07
2019-04-03T11:30:39.836Z,6.30
2019-04-03T11:35:44.543Z,7.33
2019-04-03T11:40:50.334Z,7.07
2019-04-03T11:45:55.851Z,6.93
2019-04-03T11:51:00.678Z,6.97
2019-04-03T11:56:05.436Z,7.97
2019-04-03T12:01:10.974Z,7.53
2019-04-03T12:06:16.378Z,7.87
2019-04-03T12:11:21.644Z,7.10
2019-04-03T12:16:26.647Z,7.40
2019-04-03T12:21:32.566Z,5.17
2019-04-03T12:26:37.113Z,7.10
2019-04-03T12:31:43.750Z,6.83
2019-04-03T12:36:48.508Z,7.10
2019-04-03T12:41:53.413Z,7.20
2019-04-03T12:46:58.012Z,6.73
2019-04-03T12:52:04.730Z,7.87
2019-04-03T12:57:09.902Z,7.53
2019-04-03T13:02:14.767Z,7.43
2019-04-03T13:07:19.462Z,6.93
2019-04-03T13:12:27.896Z,8.30
2019-04-03T13:17:32.593Z,7.27
2019-04-03T13:22:40.000Z,7.40
2019-04-03T13:27:44.573Z,9.50
2019-04-03T13:32:59.562Z,8.27
2019-04-03T13:37:59.510Z,8.23
2019-04-03T13:43:07.067Z,9.13
2019-04-03T13:48:13.464Z,9.70
2019-04-03T13:53:20.518Z,5.93
2019-04-03T13:58:28.313Z,9.23
2019-04-03T14:03:33.075Z,9.57
2019-04-03T14:08:37.849Z,9.73
2019-04-03T14:13:43.584Z,8.03
2019-04-03T14:18:50.389Z,9.93
2019-04-03T14:23:55.982Z,9.80
2019-04-03T14:29:00.590Z,9.70
2019-04-03T14:34:06.195Z,8.77
2019-04-03T14:39:11.206Z,9.13
2019-04-03T14:44:17.602Z,9.43
2019-04-03T14:49:24.345Z,8.93
2019-04-03T14:54:31.559Z,8.90
2019-04-03T14:59:36.020Z,8.27
2019-04-03T15:04:40.987Z,6.77
2019-04-03T15:09:46.749Z,6.73
2019-04-03T15:14:53.820Z,8.13
2019-04-03T15:19:58.175Z,8.10
2019-04-03T15:25:03.114Z,8.17
2019-04-03T15:30:10.991Z,6.37
2019-04-03T15:35:15.192Z,5.30
2019-04-03T15:40:26.393Z,7.33
2019-04-03T15:45:27.971Z,7.17
2019-04-03T15:50:38.403Z,5.47
2019-04-03T15:55:43.613Z,5.43
2019-04-03T16:00:50.044Z,6.20
2019-04-03T16:05:57.619Z,5.67
2019-04-03T16:11:03.700Z,5.87
2019-04-03T16:16:09.471Z,5.60
2019-04-03T16:21:14.091Z,4.50
2019-04-03T16:26:21.253Z,5.83
2019-04-03T16:31:26.322Z,4.97
2019-04-03T16:36:31.615Z,4.73
2019-04-03T16:41:38.226Z,4.43
2019-04-03T16:46:43.173Z,4.63
2019-04-03T16:51:48.205Z,3.90
2019-04-03T16:56:54.113Z,4.60
2019-04-03T17:01:59.007Z,4.83
2019-04-03T17:07:04.217Z,4.53
2019-04-03T17:12:08.892Z,5.27
2019-04-03T17:17:14.872Z,5.10
2019-04-03T17:22:19.939Z,4.87
2019-04-03T17:27:25.245Z,4.90
2019-04-03T17:32:31.210Z,5.50
2019-04-03T17:37:36.793Z,5.63
2019-04-03T17:42:41.645Z,5.23
2019-04-03T17:47:53.862Z,4.93
2019-04-03T17:53:00.614Z,5.50
2019-04-03T17:58:06.303Z,5.17
2019-04-03T18:03:11.251Z,4.30
2019-04-03T18:08:16.146Z,4.90
2019-04-03T18:13:27.163Z,5.23
2019-04-03T18:18:36.126Z,3.73
2019-04-03T18:23:41.357Z,3.93
2019-04-03T18:28:49.593Z,3.97
2019-04-03T18:33:57.518Z,3.90
2019-04-03T18:39:05.072Z,4.50
2019-04-03T18:44:21.289Z,4.20
2019-04-03T18:49:19.040Z,4.40
2019-04-03T18:54:26.079Z,4.77
2019-04-03T18:59:36.823Z,5.23
2019-04-03T19:04:41.759Z,5.60
2019-04-03T19:09:52.546Z,6.03
2019-04-03T19:14:58.453Z,5.77
2019-04-03T19:20:10.370Z,6.90
2019-04-03T19:25:10.816Z,6.43
2019-04-03T19:30:15.598Z,6.00
2019-04-03T19:35:20.151Z,6.30
2019-04-03T19:40:26.870Z,6.40
2019-04-03T19:45:31.410Z,5.63
2019-04-03T19:50:37.782Z,7.00
2019-04-03T19:55:42.468Z,5.83
2019-04-03T20:00:48.093Z,7.37
2019-04-03T20:05:54.983Z,5.50
2019-04-03T20:10:58.903Z,5.20
2019-04-03T20:16:03.951Z,5.27
2019-04-03T20:21:10.084Z,5.47
2019-04-03T20:26:16.339Z,5.10
2019-04-03T20:31:22.200Z,5.00
2019-04-03T20:36:26.734Z,5.80
2019-04-03T20:41:32.891Z,5.07
2019-04-03T20:46:38.719Z,5.10
2019-04-03T20:51:44.733Z,4.50
2019-04-03T20:56:57.730Z,4.27
2019-04-03T21:01:57.736Z,4.70
2019-04-03T21:07:02.441Z,4.87
2019-04-03T21:12:06.967Z,4.63
2019-04-03T21:17:11.853Z,4.80
2019-04-03T21:22:17.534Z,5.00
2019-04-03T21:27:22.053Z,6.10
2019-04-03T21:32:28.799Z,6.73
2019-04-03T21:37:34.271Z,7.53
2019-04-03T21:42:38.783Z,6.60
2019-04-03T21:47:43.379Z,7.40
2019-04-03T21:52:47.927Z,7.27
2019-04-03T21:57:52.521Z,6.50
2019-04-03T22:02:58.649Z,7.13
2019-04-03T22:08:03.306Z,7.67
2019-04-03T22:13:08.310Z,8.10
2019-04-03T22:18:13.007Z,8.47
2019-04-03T22:23:19.073Z,8.13
2019-04-03T22:28:23.734Z,8.07
2019-04-03T22:33:29.581Z,6.90
2019-04-03T22:38:36.988Z,7.63
2019-04-03T22:43:41.729Z,6.40
2019-04-03T22:48:46.338Z,6.53
2019-04-03T22:53:53.234Z,7.43
2019-04-03T22:58:57.755Z,6.30
2019-04-03T23:04:05.337Z,6.53
2019-04-03T23:09:10.334Z,6.70
2019-04-03T23:14:16.037Z,6.73
2019-04-03T23:19:20.558Z,7.17
2019-04-03T23:24:28.537Z,7.03
2019-04-03T23:29:35.744Z,7.47
2019-04-03T23:34:41.216Z,7.07
2019-04-03T23:39:45.758Z,6.73
2019-04-03T23:44:50.347Z,6.30
2019-04-03T23:49:54.956Z,7.07
2019-04-03T23:55:00.789Z,6.43
